Time;durP1;ratioP1;P1;durP2;ratioP2;P2;SDS_P1;SDS_P2;PMS_P1;PMS_P2;Temp;Humidity;BMP_temperature;BMP_pressure;BME280_temperature;BME280_humidity;BME280_pressure;Samples;Min_cycle;Max_cycle;Signal;HPM_P1;HPM_P2
2024/01/31 06:16:21;;;;;;;;;44.75;35.50;;;;;;;;5829781;23;8854;-68
2024/01/31 06:18:47;;;;;;;;;42.50;37.00;;;;;;;;5014512;28;8826;-67
2024/01/31 06:21:12;;;;;;;;;41.25;34.75;;;;;;;;5017825;28;8799;-68
2024/01/31 06:23:38;;;;;;;;;44.25;38.75;;;;;;;;5009568;28;8930;-68
2024/01/31 06:26:03;;;;;;;;;51.75;43.00;;;;;;;;5010545;28;9512;-68
2024/01/31 06:28:29;;;;;;;;;50.25;43.50;;;;;;;;5010296;28;8830;-68
2024/01/31 06:31:03;;;;;;;;;52.25;42.25;;;;;;;;5010602;28;8909;-69
2024/01/31 06:33:31;;;;;;;;;47.75;40.00;;;;;;;;5009156;28;8814;-69
2024/01/31 06:35:56;;;;;;;;;51.50;45.25;;;;;;;;5010592;28;8823;-69
2024/01/31 06:38:22;;;;;;;;;53.75;45.25;;;;;;;;5010211;28;8853;-69
2024/01/31 06:40:47;;;;;;;;;44.75;42.75;;;;;;;;5010713;28;8833;-68
2024/01/31 06:43:12;;;;;;;;;47.75;42.00;;;;;;;;5010488;28;8803;-70
2024/01/31 06:45:38;;;;;;;;;45.50;43.00;;;;;;;;5008276;28;8838;-70
2024/01/31 06:48:04;;;;;;;;;54.25;46.00;;;;;;;;5009148;28;8839;-69
2024/01/31 06:50:29;;;;;;;;;39.00;38.00;;;;;;;;5010267;28;8908;-69
2024/01/31 06:52:54;;;;;;;;;54.50;44.50;;;;;;;;5012951;28;8869;-69
2024/01/31 06:55:19;;;;;;;;;45.00;38.50;;;;;;;;5013746;28;9001;-70
2024/01/31 06:57:45;;;;;;;;;45.25;39.75;;;;;;;;5013747;28;8830;-71
2024/01/31 07:00:10;;;;;;;;;43.50;40.50;;;;;;;;5013815;28;8892;-70
2024/01/31 07:02:36;;;;;;;;;42.25;35.50;;;;;;;;5013432;28;8885;-71
2024/01/31 07:05:01;;;;;;;;;45.75;42.00;;;;;;;;5013667;28;8845;-70
2024/01/31 07:07:27;;;;;;;;;48.75;41.75;;;;;;;;5011671;28;8926;-70
2024/01/31 07:09:52;;;;;;;;;54.25;43.75;;;;;;;;5012696;28;8806;-69
2024/01/31 07:12:17;;;;;;;;;44.75;38.00;;;;;;;;5012911;28;9627;-68
2024/01/31 07:14:42;;;;;;;;;45.00;42.75;;;;;;;;5013297;28;8837;-68
2024/01/31 07:17:08;;;;;;;;;45.25;42.25;;;;;;;;5013199;28;9614;-68
2024/01/31 07:19:33;;;;;;;;;49.25;42.00;;;;;;;;5011772;28;8822;-68
2024/01/31 07:21:58;;;;;;;;;56.00;44.50;;;;;;;;5013425;28;8920;-68
2024/01/31 07:24:24;;;;;;;;;52.50;43.25;;;;;;;;5012086;28;8920;-68
2024/01/31 07:26:49;;;;;;;;;33.00;31.25;;;;;;;;5013427;28;8964;-69
2024/01/31 07:29:14;;;;;;;;;50.00;43.75;;;;;;;;5013341;28;8856;-69
2024/01/31 07:31:39;;;;;;;;;46.75;43.75;;;;;;;;5010515;28;9614;-70
2024/01/31 07:34:05;;;;;;;;;46.50;42.00;;;;;;;;5003646;28;8799;-71
2024/01/31 07:36:30;;;;;;;;;46.75;41.50;;;;;;;;5001960;28;8809;-71
2024/01/31 07:38:55;;;;;;;;;48.67;42.33;;;;;;;;5003200;28;8893;-69
2024/01/31 07:41:21;;;;;;;;;47.33;40.33;;;;;;;;5011898;28;8902;-69
2024/01/31 07:43:46;;;;;;;;;41.33;38.00;;;;;;;;5012954;28;8826;-72
2024/01/31 07:46:12;;;;;;;;;51.67;42.33;;;;;;;;5011664;28;8830;-72
2024/01/31 07:48:37;;;;;;;;;52.33;44.00;;;;;;;;5012737;28;9533;-74
2024/01/31 07:51:04;;;;;;;;;48.00;43.33;;;;;;;;5012932;28;8822;-70
2024/01/31 07:53:29;;;;;;;;;52.00;43.67;;;;;;;;5012833;28;8845;-72
2024/01/31 07:55:55;;;;;;;;;61.67;48.67;;;;;;;;5012815;28;8807;-70
2024/01/31 07:58:20;;;;;;;;;54.00;47.00;;;;;;;;5012808;28;8817;-71
2024/01/31 08:00:45;;;;;;;;;58.67;49.00;;;;;;;;5012739;28;8833;-73
2024/01/31 08:03:11;;;;;;;;;63.00;50.00;;;;;;;;5012364;28;8806;-72
2024/01/31 08:05:36;;;;;;;;;55.33;47.33;;;;;;;;5012567;28;9529;-72
2024/01/31 08:08:01;;;;;;;;;60.67;51.00;;;;;;;;4992781;28;8929;-72
2024/01/31 08:10:26;;;;;;;;;58.67;50.00;;;;;;;;4996227;28;8809;-71
2024/01/31 08:12:52;;;;;;;;;64.00;51.67;;;;;;;;4992982;28;8769;-70
2024/01/31 08:15:17;;;;;;;;;63.33;52.67;;;;;;;;4992847;28;8801;-71
2024/01/31 08:17:43;;;;;;;;;56.00;46.33;;;;;;;;4994865;28;8894;-70
2024/01/31 08:20:09;;;;;;;;;64.67;53.00;;;;;;;;5012383;28;8803;-70
2024/01/31 08:22:34;;;;;;;;;61.75;52.00;;;;;;;;5012536;28;8786;-70
2024/01/31 08:25:00;;;;;;;;;63.25;50.00;;;;;;;;5010781;28;8892;-72
2024/01/31 08:27:25;;;;;;;;;60.75;50.50;;;;;;;;5012191;28;8791;-71
2024/01/31 08:29:51;;;;;;;;;59.75;50.50;;;;;;;;5012340;28;8787;-71
2024/01/31 08:32:16;;;;;;;;;66.25;53.50;;;;;;;;5012198;28;8833;-73
2024/01/31 08:34:42;;;;;;;;;69.75;55.50;;;;;;;;5012009;28;8806;-71
2024/01/31 08:37:07;;;;;;;;;69.25;55.00;;;;;;;;5012092;28;8884;-71
2024/01/31 08:39:32;;;;;;;;;72.25;56.50;;;;;;;;5008022;28;8798;-71
2024/01/31 08:41:57;;;;;;;;;75.00;60.25;;;;;;;;5001558;28;9581;-71
2024/01/31 08:44:23;;;;;;;;;72.50;57.25;;;;;;;;5001008;28;8846;-70
2024/01/31 08:46:48;;;;;;;;;71.25;58.50;;;;;;;;5002481;28;9658;-70
2024/01/31 08:49:14;;;;;;;;;75.00;59.50;;;;;;;;5003269;28;8814;-70
2024/01/31 08:51:40;;;;;;;;;70.25;55.00;;;;;;;;5008720;28;9554;-71
2024/01/31 08:54:06;;;;;;;;;68.50;55.00;;;;;;;;5001605;28;8892;-71
2024/01/31 08:56:31;;;;;;;;;64.50;54.25;;;;;;;;5002111;28;8827;-71
2024/01/31 08:58:57;;;;;;;;;61.00;53.00;;;;;;;;5000378;28;8916;-71
2024/01/31 09:01:22;;;;;;;;;66.00;53.75;;;;;;;;5001911;28;8783;-71
2024/01/31 09:03:47;;;;;;;;;69.50;55.00;;;;;;;;5009749;28;8798;-70
2024/01/31 09:06:13;;;;;;;;;69.00;56.50;;;;;;;;5007068;28;8822;-71
2024/01/31 09:08:39;;;;;;;;;74.00;57.75;;;;;;;;5011566;28;8806;-70
2024/01/31 09:11:04;;;;;;;;;69.50;57.00;;;;;;;;5011608;28;8817;-70
2024/01/31 09:13:29;;;;;;;;;67.75;54.00;;;;;;;;5011411;28;8799;-70
2024/01/31 09:15:54;;;;;;;;;67.25;56.50;;;;;;;;5010919;28;8814;-70
2024/01/31 09:18:20;;;;;;;;;75.50;61.00;;;;;;;;5011024;28;8876;-70
2024/01/31 09:20:45;;;;;;;;;66.75;52.25;;;;;;;;5011022;28;8937;-70
2024/01/31 09:23:11;;;;;;;;;78.00;60.50;;;;;;;;5008055;28;8827;-71
2024/01/31 09:25:36;;;;;;;;;75.50;59.50;;;;;;;;5011042;28;8830;-71
2024/01/31 09:28:01;;;;;;;;;72.00;59.00;;;;;;;;5011148;28;8786;-71
2024/01/31 09:30:26;;;;;;;;;82.25;62.00;;;;;;;;5011077;28;8791;-70
2024/01/31 09:32:52;;;;;;;;;77.00;62.25;;;;;;;;5010751;28;8826;-70
2024/01/31 09:35:17;;;;;;;;;80.50;62.50;;;;;;;;5011004;28;8794;-71
2024/01/31 09:37:42;;;;;;;;;77.25;60.75;;;;;;;;5010909;28;8794;-70
2024/01/31 09:40:08;;;;;;;;;78.25;61.25;;;;;;;;5010944;28;8795;-70
2024/01/31 09:42:33;;;;;;;;;77.00;61.75;;;;;;;;5010997;28;8803;-69
2024/01/31 09:44:59;;;;;;;;;85.75;64.50;;;;;;;;5010937;28;8834;-71
2024/01/31 09:47:26;;;;;;;;;81.25;63.00;;;;;;;;5010797;28;8807;-71
2024/01/31 09:49:51;;;;;;;;;79.50;62.75;;;;;;;;5009563;28;8841;-70
2024/01/31 09:52:18;;;;;;;;;80.25;63.50;;;;;;;;5009382;28;9544;-71
2024/01/31 09:54:44;;;;;;;;;78.25;63.75;;;;;;;;5011035;28;9563;-71
2024/01/31 09:57:10;;;;;;;;;79.00;63.50;;;;;;;;5010751;28;9785;-71
2024/01/31 09:59:35;;;;;;;;;79.00;63.75;;;;;;;;5010814;28;8817;-71
2024/01/31 10:02:01;;;;;;;;;73.75;61.50;;;;;;;;5010736;28;8791;-71
2024/01/31 10:04:26;;;;;;;;;76.00;59.50;;;;;;;;5010687;28;8830;-72
2024/01/31 10:06:52;;;;;;;;;75.25;61.25;;;;;;;;5010535;28;8795;-72
2024/01/31 10:09:17;;;;;;;;;75.00;59.50;;;;;;;;5009545;28;8819;-72
2024/01/31 10:11:46;;;;;;;;;77.25;61.50;;;;;;;;5010819;28;8783;-71
2024/01/31 10:14:12;;;;;;;;;77.00;62.25;;;;;;;;5005712;28;9556;-71
2024/01/31 10:16:37;;;;;;;;;78.50;62.50;;;;;;;;5000781;28;8847;-71
